Time,TemperatureF,DewpointF,PressureIn,WindDirection,WindDirectionDegrees,WindSpeedMPH,WindSpeedGustMPH,Humidity,HourlyPrecipIn,Conditions,Clouds,dailyrainin,SoftwareType,DateUTC
2013-02-22 00:13:00,41.6,40.0,30.19,SSE,156,0.0,2.0,94,0.15,,,0.04,weatherlink.com 1.10,2013-02-22 05:13:00,
2013-02-22 00:28:00,41.6,40.0,30.18,ENE,67,0.0,3.0,94,0.18,,,0.10,weatherlink.com 1.10,2013-02-22 05:28:00,
2013-02-22 00:43:00,41.5,40.0,30.17,SE,139,2.0,4.0,94,0.19,,,0.14,weatherlink.com 1.10,2013-02-22 05:43:00,
2013-02-22 00:58:00,41.5,40.0,30.15,East,94,2.0,5.0,94,0.20,,,0.18,weatherlink.com 1.10,2013-02-22 05:58:00,
2013-02-22 01:13:00,41.7,40.0,30.13,ESE,123,2.0,8.0,94,0.20,,,0.24,weatherlink.com 1.10,2013-02-22 06:13:00,
2013-02-22 01:28:00,41.9,40.0,30.14,ESE,121,0.0,4.0,94,0.16,,,0.26,weatherlink.com 1.10,2013-02-22 06:28:00,
2013-02-22 01:43:00,42.1,41.0,30.14,ENE,69,1.0,3.0,94,0.16,,,0.30,weatherlink.com 1.10,2013-02-22 06:43:00,
2013-02-22 01:58:00,42.2,40.0,30.13,ESE,122,5.0,6.0,93,0.14,,,0.32,weatherlink.com 1.10,2013-02-22 06:58:00,
2013-02-22 02:13:00,42.5,41.0,30.15,West,269,1.0,5.0,93,0.13,,,0.37,weatherlink.com 1.10,2013-02-22 07:13:00,
2013-02-22 02:28:00,42.4,41.0,30.10,SSE,158,3.0,7.0,93,0.17,,,0.43,weatherlink.com 1.10,2013-02-22 07:28:00,
2013-02-22 02:43:00,42.3,41.0,30.10,South,173,7.0,9.0,93,0.14,,,0.44,weatherlink.com 1.10,2013-02-22 07:43:00,
2013-02-22 02:58:00,42.1,40.0,30.10,South,172,11.0,11.0,93,0.13,,,0.45,weatherlink.com 1.10,2013-02-22 07:58:00,
2013-02-22 03:13:00,41.9,40.0,30.10,SE,131,4.0,6.0,93,0.10,,,0.47,weatherlink.com 1.10,2013-02-22 08:13:00,
2013-02-22 03:28:00,41.9,40.0,30.09,SE,130,5.0,7.0,93,0.04,,,0.47,weatherlink.com 1.10,2013-02-22 08:28:00,
2013-02-22 03:43:00,42.2,40.0,30.09,SE,140,6.0,11.0,92,0.03,,,0.47,weatherlink.com 1.10,2013-02-22 08:43:00,
2013-02-22 03:58:00,42.4,40.0,30.10,SSE,159,4.0,8.0,91,0.03,,,0.48,weatherlink.com 1.10,2013-02-22 08:58:00,
2013-02-22 04:13:00,42.4,40.0,30.10,SSE,158,3.0,4.0,92,0.01,,,0.48,weatherlink.com 1.10,2013-02-22 09:13:00,
2013-02-22 04:28:00,42.5,40.0,30.12,SSE,155,2.0,4.0,92,0.04,,,0.51,weatherlink.com 1.10,2013-02-22 09:28:00,
2013-02-22 04:43:00,42.4,41.0,30.11,NE,44,0.0,3.0,93,0.06,,,0.53,weatherlink.com 1.10,2013-02-22 09:43:00,
2013-02-22 04:58:00,42.2,40.0,30.13,ESE,113,1.0,2.0,93,0.06,,,0.54,weatherlink.com 1.10,2013-02-22 09:58:00,
2013-02-22 05:13:00,42.1,41.0,30.13,ENE,70,2.0,5.0,94,0.07,,,0.55,weatherlink.com 1.10,2013-02-22 10:13:00,
2013-02-22 05:28:00,41.8,40.0,30.12,SE,130,1.0,8.0,93,0.05,,,0.56,weatherlink.com 1.10,2013-02-22 10:28:00,
2013-02-22 05:43:00,41.4,40.0,30.13,SE,137,1.0,5.0,93,0.03,,,0.56,weatherlink.com 1.10,2013-02-22 10:43:00,
2013-02-22 05:58:00,41.1,39.0,30.13,NE,50,2.0,4.0,93,0.02,,,0.56,weatherlink.com 1.10,2013-02-22 10:58:00,
2013-02-22 06:13:00,41.0,39.0,30.13,ESE,103,1.0,1.0,93,0.01,,,0.56,weatherlink.com 1.10,2013-02-22 11:13:00,
2013-02-22 06:28:00,40.9,39.0,30.13,SE,139,0.0,2.0,93,0.00,,,0.56,weatherlink.com 1.10,2013-02-22 11:28:00,
2013-02-22 06:43:00,40.9,39.0,30.12,SSE,151,0.0,2.0,93,0.00,,,0.56,weatherlink.com 1.10,2013-02-22 11:43:00,
2013-02-22 06:58:00,41.0,39.0,30.12,SE,134,0.0,2.0,93,0.00,,,0.56,weatherlink.com 1.10,2013-02-22 11:58:00,
2013-02-22 07:13:00,41.2,39.0,30.11,SE,129,1.0,2.0,93,0.00,,,0.56,weatherlink.com 1.10,2013-02-22 12:13:00,
2013-02-22 07:28:00,41.5,40.0,30.12,SSE,159,0.0,5.0,93,0.00,,,0.56,weatherlink.com 1.10,2013-02-22 12:28:00,
2013-02-22 07:43:00,41.9,40.0,30.13,SE,134,0.0,4.0,92,0.00,,,0.56,weatherlink.com 1.10,2013-02-22 12:43:00,
2013-02-22 07:58:00,42.1,40.0,30.13,SE,139,1.0,3.0,91,0.00,,,0.56,weatherlink.com 1.10,2013-02-22 12:58:00,
2013-02-22 08:13:00,42.1,39.0,30.14,SE,141,1.0,5.0,90,0.00,,,0.56,weatherlink.com 1.10,2013-02-22 13:13:00,
2013-02-22 08:28:00,42.1,39.0,30.14,SSE,167,3.0,5.0,90,0.00,,,0.56,weatherlink.com 1.10,2013-02-22 13:28:00,
2013-02-22 08:43:00,42.0,39.0,30.14,SE,127,4.0,9.0,88,0.00,,,0.56,weatherlink.com 1.10,2013-02-22 13:43:00,
2013-02-22 08:58:00,41.9,39.0,30.14,South,169,5.0,6.0,88,0.00,,,0.56,weatherlink.com 1.10,2013-02-22 13:58:00,
2013-02-22 09:13:00,42.0,39.0,30.14,ENE,70,1.0,4.0,88,0.00,,,0.56,weatherlink.com 1.10,2013-02-22 14:13:00,
2013-02-22 09:28:00,42.4,39.0,30.14,NNE,20,0.0,3.0,89,0.00,,,0.56,weatherlink.com 1.10,2013-02-22 14:28:00,
2013-02-22 09:43:00,43.3,40.0,30.14,WSW,253,1.0,4.0,89,0.00,,,0.56,weatherlink.com 1.10,2013-02-22 14:43:00,
2013-02-22 09:58:00,44.0,40.0,30.14,SE,143,0.0,2.0,87,0.00,,,0.56,weatherlink.com 1.10,2013-02-22 14:58:00,
2013-02-22 10:13:00,44.1,41.0,30.13,SE,143,1.0,2.0,88,0.00,,,0.56,weatherlink.com 1.10,2013-02-22 15:13:00,
2013-02-22 10:28:00,44.3,41.0,30.12,South,170,1.0,4.0,88,0.00,,,0.56,weatherlink.com 1.10,2013-02-22 15:28:00,
2013-02-22 10:59:00,45.6,42.0,30.13,SE,127,0.0,4.0,88,0.00,,,0.56,weatherlink.com 1.10,2013-02-22 15:59:00,
2013-02-22 11:14:00,46.1,43.0,30.13,NE,49,0.0,3.0,87,0.00,,,0.56,weatherlink.com 1.10,2013-02-22 16:14:00,
2013-02-22 11:29:00,46.4,43.0,30.14,West,274,5.0,7.0,87,0.00,,,0.56,weatherlink.com 1.10,2013-02-22 16:29:00,
2013-02-22 11:44:00,46.8,43.0,30.14,SE,144,0.0,2.0,87,0.00,,,0.56,weatherlink.com 1.10,2013-02-22 16:44:00,
2013-02-22 11:59:00,46.6,43.0,30.14,South,181,3.0,6.0,86,0.00,,,0.56,weatherlink.com 1.10,2013-02-22 16:59:00,
2013-02-22 12:14:00,46.8,43.0,30.13,SE,134,2.0,3.0,87,0.00,,,0.56,weatherlink.com 1.10,2013-02-22 17:14:00,
2013-02-22 12:29:00,46.9,43.0,30.14,SSW,208,3.0,10.0,86,0.00,,,0.56,weatherlink.com 1.10,2013-02-22 17:29:00,
2013-02-22 12:44:00,46.4,43.0,30.13,SSW,192,3.0,9.0,86,0.00,,,0.56,weatherlink.com 1.10,2013-02-22 17:44:00,
2013-02-22 12:59:00,47.0,43.0,30.12,SSW,200,2.0,4.0,85,0.00,,,0.56,weatherlink.com 1.10,2013-02-22 17:59:00,
2013-02-22 13:14:00,47.2,43.0,30.12,ESE,122,3.0,7.0,84,0.00,,,0.56,weatherlink.com 1.10,2013-02-22 18:14:00,
2013-02-22 13:29:00,47.5,43.0,30.11,SSE,152,3.0,9.0,84,0.00,,,0.56,weatherlink.com 1.10,2013-02-22 18:29:00,
2013-02-22 13:45:00,47.5,43.0,30.10,SE,135,1.0,6.0,84,0.00,,,0.56,weatherlink.com 1.10,2013-02-22 18:45:00,
2013-02-22 13:59:00,47.6,43.0,30.10,ESE,109,0.0,3.0,84,0.00,,,0.56,weatherlink.com 1.10,2013-02-22 18:59:00,
2013-02-22 14:14:00,47.3,43.0,30.10,SE,129,2.0,3.0,84,0.00,,,0.56,weatherlink.com 1.10,2013-02-22 19:14:00,
2013-02-22 14:29:00,47.1,43.0,30.09,SE,145,0.0,3.0,85,0.00,,,0.56,weatherlink.com 1.10,2013-02-22 19:29:00,
2013-02-22 14:44:00,46.8,43.0,30.09,SE,133,1.0,3.0,85,0.00,,,0.56,weatherlink.com 1.10,2013-02-22 19:44:00,
2013-02-22 14:59:00,46.8,43.0,30.10,SE,141,1.0,2.0,86,0.00,,,0.56,weatherlink.com 1.10,2013-02-22 19:59:00,
2013-02-22 15:14:00,47.1,43.0,30.09,SE,137,1.0,3.0,86,0.00,,,0.56,weatherlink.com 1.10,2013-02-22 20:14:00,
2013-02-22 15:29:00,47.5,43.0,30.09,SE,131,1.0,4.0,85,0.00,,,0.56,weatherlink.com 1.10,2013-02-22 20:29:00,
2013-02-22 15:59:00,48.1,44.0,30.08,SSE,168,3.0,4.0,85,0.00,,,0.56,weatherlink.com 1.10,2013-02-22 20:59:00,
2013-02-22 16:14:00,48.0,43.0,30.07,SSE,168,3.0,4.0,84,0.00,,,0.56,weatherlink.com 1.10,2013-02-22 21:14:00,
2013-02-22 16:29:00,47.6,43.0,30.06,South,174,2.0,4.0,85,0.00,,,0.56,weatherlink.com 1.10,2013-02-22 21:29:00,
2013-02-22 16:44:00,47.6,44.0,30.07,SSW,195,1.0,4.0,86,0.00,,,0.56,weatherlink.com 1.10,2013-02-22 21:44:00,
2013-02-22 16:59:00,47.4,43.0,30.07,SSE,149,1.0,3.0,86,0.00,,,0.56,weatherlink.com 1.10,2013-02-22 21:59:00,
2013-02-22 17:14:00,47.2,43.0,30.07,SSE,163,1.0,2.0,86,0.00,,,0.56,weatherlink.com 1.10,2013-02-22 22:14:00,
2013-02-22 17:29:00,46.8,43.0,30.08,SE,142,1.0,3.0,87,0.00,,,0.56,weatherlink.com 1.10,2013-02-22 22:29:00,
2013-02-22 17:44:00,46.5,43.0,30.07,SE,138,1.0,4.0,88,0.00,,,0.56,weatherlink.com 1.10,2013-02-22 22:44:00,
2013-02-22 17:59:00,46.3,43.0,30.07,SW,214,1.0,3.0,88,0.00,,,0.56,weatherlink.com 1.10,2013-02-22 22:59:00,
2013-02-22 18:14:00,46.1,43.0,30.09,East,98,2.0,3.0,89,0.00,,,0.56,weatherlink.com 1.10,2013-02-22 23:14:00,
2013-02-22 18:29:00,45.8,43.0,30.09,SSW,194,2.0,3.0,90,0.00,,,0.56,weatherlink.com 1.10,2013-02-22 23:29:00,
2013-02-22 18:44:00,45.5,43.0,30.09,South,178,1.0,3.0,90,0.00,,,0.56,weatherlink.com 1.10,2013-02-22 23:44:00,
2013-02-22 18:59:00,45.2,43.0,30.09,SE,131,1.0,2.0,90,0.00,,,0.56,weatherlink.com 1.10,2013-02-22 23:59:00,
2013-02-22 19:14:00,45.0,43.0,30.10,SSE,165,1.0,2.0,91,0.00,,,0.56,weatherlink.com 1.10,2013-02-23 00:14:00,
2013-02-22 19:29:00,45.0,43.0,30.11,SSE,153,0.0,0.0,91,0.00,,,0.56,weatherlink.com 1.10,2013-02-23 00:29:00,
2013-02-22 19:44:00,44.9,43.0,30.11,SSE,155,1.0,1.0,91,0.00,,,0.56,weatherlink.com 1.10,2013-02-23 00:44:00,
2013-02-22 19:59:00,44.8,42.0,30.10,SSE,167,1.0,2.0,91,0.00,,,0.56,weatherlink.com 1.10,2013-02-23 00:59:00,
2013-02-22 20:14:00,44.6,42.0,30.10,SSE,158,1.0,1.0,91,0.00,,,0.56,weatherlink.com 1.10,2013-02-23 01:14:00,
2013-02-22 20:29:00,44.4,43.0,30.09,SE,132,1.0,3.0,93,0.00,,,0.56,weatherlink.com 1.10,2013-02-23 01:29:00,
2013-02-22 20:44:00,44.4,43.0,30.07,SE,138,0.0,1.0,93,0.00,,,0.56,weatherlink.com 1.10,2013-02-23 01:44:00,
2013-02-22 20:59:00,44.6,43.0,30.06,ENE,72,0.0,2.0,94,0.00,,,0.56,weatherlink.com 1.10,2013-02-23 01:59:00,
2013-02-22 21:14:00,44.8,43.0,30.07,ESE,123,0.0,1.0,94,0.00,,,0.56,weatherlink.com 1.10,2013-02-23 02:14:00,
2013-02-22 21:29:00,45.0,43.0,30.07,SW,232,2.0,2.0,94,0.00,,,0.56,weatherlink.com 1.10,2013-02-23 02:29:00,
2013-02-22 21:44:00,45.0,43.0,30.07,SSE,165,2.0,3.0,93,0.00,,,0.56,weatherlink.com 1.10,2013-02-23 02:44:00,
2013-02-22 22:00:00,45.1,43.0,30.07,NNW,338,1.0,2.0,93,0.00,,,0.56,weatherlink.com 1.10,2013-02-23 03:00:00,
2013-02-22 22:14:00,44.9,43.0,30.09,NNW,338,0.0,1.0,93,0.00,,,0.56,weatherlink.com 1.10,2013-02-23 03:14:00,
2013-02-22 22:29:00,44.8,43.0,30.14,WSW,250,1.0,1.0,93,0.00,,,0.56,weatherlink.com 1.10,2013-02-23 03:29:00,
2013-02-22 22:44:00,44.9,43.0,30.13,West,278,0.0,3.0,94,0.00,,,0.56,weatherlink.com 1.10,2013-02-23 03:44:00,
2013-02-22 22:59:00,45.1,44.0,30.11,SE,132,0.0,2.0,94,0.00,,,0.56,weatherlink.com 1.10,2013-02-23 03:59:00,
2013-02-22 23:14:00,45.1,44.0,30.10,SSW,192,0.0,2.0,94,0.01,,,0.57,weatherlink.com 1.10,2013-02-23 04:14:00,
2013-02-22 23:29:00,45.0,43.0,30.07,South,176,3.0,3.0,94,0.02,,,0.58,weatherlink.com 1.10,2013-02-23 04:29:00,
2013-02-22 23:44:00,44.9,43.0,30.07,SW,214,0.0,2.0,94,0.02,,,0.58,weatherlink.com 1.10,2013-02-23 04:44:00,
2013-02-22 23:59:00,44.8,43.0,30.07,SSW,210,0.0,1.0,94,0.02,,,0.58,weatherlink.com 1.10,2013-02-23 04:59:00,